createdAt,value
2018-11-01T00:00:23.200Z,63.00
2018-11-01T00:01:01.596Z,63.00
2018-11-01T00:01:35.450Z,62.80
2018-11-01T00:02:09.673Z,62.60
2018-11-01T00:02:43.224Z,62.40
2018-11-01T00:03:16.747Z,62.40
2018-11-01T00:03:50.307Z,62.30
2018-11-01T00:04:23.768Z,62.10
2018-11-01T00:04:57.214Z,61.90
2018-11-01T00:05:30.759Z,61.80
2018-11-01T00:06:04.270Z,61.70
2018-11-01T00:06:37.855Z,61.80
2018-11-01T00:07:11.390Z,62.00
2018-11-01T00:07:45.358Z,62.00
2018-11-01T00:08:18.955Z,61.90
2018-11-01T00:08:52.401Z,61.70
2018-11-01T00:09:25.945Z,61.70
2018-11-01T00:09:59.546Z,61.90
2018-11-01T00:10:33.040Z,62.20
2018-11-01T00:11:07.215Z,62.50
2018-11-01T00:11:40.685Z,62.70
2018-11-01T00:12:14.111Z,62.50
2018-11-01T00:12:47.589Z,62.50
2018-11-01T00:13:21.116Z,62.30
2018-11-01T00:13:54.854Z,62.50
2018-11-01T00:14:28.356Z,62.80
2018-11-01T00:15:01.808Z,63.00
2018-11-01T00:15:35.363Z,63.00
2018-11-01T00:16:08.860Z,62.90
2018-11-01T00:16:42.362Z,62.90
2018-11-01T00:17:15.879Z,62.80
2018-11-01T00:17:49.497Z,62.80
2018-11-01T00:18:22.988Z,62.70
2018-11-01T00:18:56.486Z,62.90
2018-11-01T00:19:29.964Z,63.00
2018-11-01T00:20:03.451Z,63.10
2018-11-01T00:20:36.926Z,63.00
2018-11-01T00:21:10.570Z,63.10
2018-11-01T00:21:44.723Z,63.30
2018-11-01T00:22:18.213Z,63.20
2018-11-01T00:22:51.725Z,63.20
2018-11-01T00:23:25.204Z,63.10
2018-11-01T00:23:58.703Z,63.40
2018-11-01T00:24:32.237Z,63.30
2018-11-01T00:25:07.591Z,63.10
2018-11-01T00:25:41.076Z,63.10
2018-11-01T00:26:14.526Z,63.10
2018-11-01T00:26:48.055Z,63.40
2018-11-01T00:27:21.534Z,63.60
2018-11-01T00:27:55.037Z,63.40
2018-11-01T00:28:28.527Z,63.40
2018-11-01T00:29:02.017Z,63.00
2018-11-01T00:29:35.492Z,63.10
2018-11-01T00:30:09.967Z,62.90
2018-11-01T00:30:44.129Z,62.70
2018-11-01T00:31:17.700Z,62.60
2018-11-01T00:31:51.157Z,62.70
2018-11-01T00:32:24.642Z,62.80
2018-11-01T00:32:58.126Z,62.80
2018-11-01T00:33:32.284Z,63.00
2018-11-01T00:34:05.897Z,62.90
2018-11-01T00:34:39.400Z,62.80
2018-11-01T00:35:12.954Z,62.90
2018-11-01T00:35:46.457Z,63.10
2018-11-01T00:36:19.949Z,63.30
2018-11-01T00:36:53.537Z,63.10
2018-11-01T00:37:26.989Z,62.90
2018-11-01T00:38:00.494Z,62.90
2018-11-01T00:38:33.967Z,62.70
2018-11-01T00:39:10.153Z,62.50
2018-11-01T00:39:43.578Z,62.00
2018-11-01T00:40:17.061Z,62.00
2018-11-01T00:40:50.598Z,61.70
2018-11-01T00:41:24.053Z,61.50
2018-11-01T00:41:57.519Z,61.30
2018-11-01T00:42:31.032Z,61.40
2018-11-01T00:43:04.566Z,61.60
2018-11-01T00:43:38.134Z,62.10
2018-11-01T00:44:11.699Z,62.50
2018-11-01T00:44:45.223Z,62.70
2018-11-01T00:45:18.756Z,62.50
2018-11-01T00:45:52.248Z,62.20
2018-11-01T00:46:26.369Z,62.20
2018-11-01T00:47:00.487Z,62.40
2018-11-01T00:47:35.180Z,62.20
2018-11-01T00:48:08.661Z,62.30
2018-11-01T00:48:42.184Z,62.40
2018-11-01T00:49:16.444Z,62.20
2018-11-01T00:49:50.754Z,62.50
2018-11-01T00:50:24.343Z,61.60
2018-11-01T00:50:57.827Z,62.50
2018-11-01T00:51:31.405Z,61.90
2018-11-01T00:52:05.142Z,62.00
2018-11-01T00:52:38.683Z,62.10
2018-11-01T00:53:12.124Z,62.00
2018-11-01T00:53:45.615Z,61.80
2018-11-01T00:54:19.118Z,61.70
2018-11-01T00:54:52.627Z,61.60
2018-11-01T00:55:26.086Z,61.80
2018-11-01T00:55:59.596Z,62.10
2018-11-01T00:56:33.075Z,62.10
2018-11-01T00:57:06.678Z,62.20
2018-11-01T00:57:40.995Z,62.40
2018-11-01T00:58:14.442Z,62.60
2018-11-01T00:58:47.940Z,62.50
2018-11-01T00:59:21.389Z,62.70
2018-11-01T00:59:54.893Z,63.10
2018-11-01T01:00:28.448Z,63.00
2018-11-01T01:01:01.996Z,62.90
2018-11-01T01:01:35.523Z,62.90
2018-11-01T01:02:09.075Z,62.70
2018-11-01T01:02:42.560Z,62.70
2018-11-01T01:03:16.032Z,62.90
2018-11-01T01:03:49.558Z,63.10
2018-11-01T01:04:23.215Z,63.30
2018-11-01T01:04:56.884Z,63.40
2018-11-01T01:05:30.465Z,63.30
2018-11-01T01:06:04.115Z,63.20
2018-11-01T01:06:37.789Z,63.30
2018-11-01T01:07:11.272Z,63.30
2018-11-01T01:07:44.771Z,63.40
2018-11-01T01:08:18.509Z,63.40
2018-11-01T01:08:52.946Z,63.40
2018-11-01T01:09:26.439Z,63.50
2018-11-01T01:09:59.940Z,63.40
2018-11-01T01:10:33.399Z,63.40
2018-11-01T01:11:06.930Z,63.40
2018-11-01T01:11:41.159Z,63.50
2018-11-01T01:12:14.647Z,63.50
2018-11-01T01:12:48.964Z,63.20
2018-11-01T01:13:22.672Z,63.10
2018-11-01T01:13:56.161Z,63.00
2018-11-01T01:14:29.610Z,62.80
2018-11-01T01:15:03.083Z,62.50
2018-11-01T01:15:37.529Z,62.20
2018-11-01T01:16:11.011Z,62.20
2018-11-01T01:16:44.532Z,62.10
2018-11-01T01:17:18.013Z,62.30
2018-11-01T01:17:51.495Z,62.30
2018-11-01T01:18:25.007Z,62.20
2018-11-01T01:18:58.521Z,62.30
2018-11-01T01:19:31.976Z,63.10
2018-11-01T01:20:07.719Z,62.10
2018-11-01T01:20:41.183Z,62.10
2018-11-01T01:21:14.717Z,61.80
2018-11-01T01:21:48.208Z,61.60
2018-11-01T01:22:21.744Z,61.80
2018-11-01T01:22:55.253Z,61.80
2018-11-01T01:23:28.981Z,61.80
2018-11-01T01:24:02.424Z,61.60
2018-11-01T01:24:35.972Z,61.70
2018-11-01T01:25:11.912Z,61.60
2018-11-01T01:25:45.521Z,62.40
2018-11-01T01:26:19.011Z,61.30
2018-11-01T01:26:52.485Z,60.90
2018-11-01T01:27:26.062Z,60.80
2018-11-01T01:27:59.627Z,60.70
2018-11-01T01:28:33.171Z,60.80
2018-11-01T01:29:06.644Z,60.90
2018-11-01T01:29:40.143Z,61.10
2018-11-01T01:30:16.795Z,61.20
2018-11-01T01:30:50.272Z,61.20
2018-11-01T01:31:23.723Z,61.20
2018-11-01T01:31:57.187Z,61.20
2018-11-01T01:32:30.727Z,61.10
2018-11-01T01:33:04.183Z,60.50
2018-11-01T01:33:37.775Z,60.40
2018-11-01T01:34:11.447Z,60.40
2018-11-01T01:34:45.067Z,60.80
2018-11-01T01:35:18.739Z,61.00
2018-11-01T01:35:52.174Z,61.00
2018-11-01T01:36:25.667Z,60.90
2018-11-01T01:36:59.134Z,60.90
2018-11-01T01:37:32.678Z,60.80
2018-11-01T01:38:06.236Z,60.90
2018-11-01T01:38:39.714Z,60.60
2018-11-01T01:39:13.998Z,60.40
2018-11-01T01:39:48.146Z,60.60
2018-11-01T01:40:21.604Z,60.40
2018-11-01T01:40:55.725Z,60.00
2018-11-01T01:41:29.198Z,59.60
2018-11-01T01:42:02.729Z,59.70
2018-11-01T01:42:37.154Z,59.80
2018-11-01T01:43:10.594Z,59.80
2018-11-01T01:43:44.043Z,60.10
2018-11-01T01:44:17.551Z,60.30
2018-11-01T01:44:50.999Z,59.10
2018-11-01T01:45:25.177Z,58.90
2018-11-01T01:45:58.671Z,58.80
2018-11-01T01:46:32.153Z,58.70
2018-11-01T01:47:06.497Z,58.60
2018-11-01T01:47:40.006Z,58.60
2018-11-01T01:48:13.483Z,57.90
2018-11-01T01:48:46.988Z,57.90
2018-11-01T01:49:20.491Z,58.00
2018-11-01T01:49:53.949Z,58.30
2018-11-01T01:50:27.459Z,58.30
2018-11-01T01:51:00.888Z,58.70
2018-11-01T01:51:34.404Z,58.20
2018-11-01T01:52:07.864Z,58.20
2018-11-01T01:52:42.087Z,58.00
2018-11-01T01:53:15.599Z,57.50
2018-11-01T01:53:49.048Z,57.30
2018-11-01T01:54:22.780Z,57.40
2018-11-01T01:54:56.863Z,57.20
2018-11-01T01:55:30.426Z,57.40
2018-11-01T01:56:03.955Z,57.50
2018-11-01T01:56:37.501Z,57.90
2018-11-01T01:57:11.103Z,58.20
2018-11-01T01:57:44.603Z,57.80
2018-11-01T01:58:18.600Z,57.40
2018-11-01T01:58:52.061Z,57.20
2018-11-01T01:59:25.553Z,57.00
2018-11-01T01:59:59.045Z,56.80
2018-11-01T02:00:32.487Z,56.80
2018-11-01T02:01:06.417Z,56.90
2018-11-01T02:01:39.908Z,56.70
2018-11-01T02:02:13.390Z,57.50
2018-11-01T02:02:48.330Z,56.90
2018-11-01T02:03:21.807Z,56.90
2018-11-01T02:03:55.324Z,56.70
2018-11-01T02:04:28.818Z,56.60
2018-11-01T02:05:02.344Z,56.70
2018-11-01T02:05:35.968Z,56.50
2018-11-01T02:06:09.415Z,56.50
2018-11-01T02:06:42.976Z,56.40
2018-11-01T02:07:16.700Z,56.30
2018-11-01T02:07:50.420Z,56.20
2018-11-01T02:08:23.924Z,56.00
2018-11-01T02:08:58.312Z,56.10
2018-11-01T02:09:31.810Z,56.10
2018-11-01T02:10:06.843Z,56.00
2018-11-01T02:10:40.339Z,55.70
2018-11-01T02:11:13.826Z,55.90
2018-11-01T02:11:47.420Z,56.60
2018-11-01T02:12:20.857Z,56.00
2018-11-01T02:12:54.418Z,56.00
2018-11-01T02:13:27.953Z,56.20
2018-11-01T02:14:01.474Z,56.30
2018-11-01T02:14:34.982Z,56.90
2018-11-01T02:15:10.518Z,57.30
2018-11-01T02:15:44.032Z,57.20
2018-11-01T02:16:17.543Z,57.10
2018-11-01T02:16:51.080Z,57.00
2018-11-01T02:17:24.522Z,56.90
2018-11-01T02:17:58.099Z,57.30
2018-11-01T02:18:32.396Z,57.20
2018-11-01T02:19:06.735Z,57.00
2018-11-01T02:19:40.178Z,56.80
2018-11-01T02:20:15.151Z,57.30
2018-11-01T02:20:48.640Z,57.50
2018-11-01T02:21:22.121Z,57.80
2018-11-01T02:21:55.675Z,57.90
2018-11-01T02:22:29.153Z,57.70
2018-11-01T02:23:02.705Z,57.70
2018-11-01T02:23:36.177Z,57.90
2018-11-01T02:24:09.678Z,58.00
2018-11-01T02:24:43.372Z,58.10
2018-11-01T02:25:16.829Z,58.30
2018-11-01T02:25:50.304Z,58.40
2018-11-01T02:26:23.788Z,58.60
2018-11-01T02:26:57.311Z,58.30
2018-11-01T02:27:36.054Z,58.10
2018-11-01T02:28:14.803Z,58.10
2018-11-01T02:28:48.308Z,57.90
2018-11-01T02:29:21.808Z,58.00
2018-11-01T02:29:55.343Z,58.30
2018-11-01T02:30:28.815Z,58.30
2018-11-01T02:31:02.247Z,58.20
2018-11-01T02:31:35.707Z,58.10
2018-11-01T02:32:09.147Z,58.80
2018-11-01T02:32:43.392Z,58.00
2018-11-01T02:33:16.925Z,58.20
2018-11-01T02:33:50.427Z,58.40
2018-11-01T02:34:23.932Z,58.50
2018-11-01T02:34:57.412Z,58.30
2018-11-01T02:35:30.914Z,58.30
2018-11-01T02:36:04.423Z,58.20
2018-11-01T02:36:37.925Z,58.40
2018-11-01T02:37:11.446Z,58.30
2018-11-01T02:37:45.846Z,58.30
2018-11-01T02:38:19.422Z,58.50
2018-11-01T02:38:53.132Z,58.30
2018-11-01T02:39:26.495Z,58.20
2018-11-01T02:40:00.004Z,58.10
2018-11-01T02:40:33.566Z,57.70
2018-11-01T02:41:07.087Z,57.20
2018-11-01T02:41:40.802Z,57.00
2018-11-01T02:42:14.271Z,57.10
2018-11-01T02:42:47.725Z,57.30
2018-11-01T02:43:21.179Z,56.90
2018-11-01T02:43:54.702Z,57.00
2018-11-01T02:44:28.192Z,57.20
2018-11-01T02:45:01.653Z,58.10
2018-11-01T02:45:35.218Z,57.40
2018-11-01T02:46:08.863Z,57.20
2018-11-01T02:46:42.380Z,56.90
2018-11-01T02:47:15.854Z,57.20
2018-11-01T02:47:49.348Z,57.30
2018-11-01T02:48:22.809Z,58.10
2018-11-01T02:48:56.357Z,57.40
2018-11-01T02:49:29.787Z,57.40
2018-11-01T02:50:03.593Z,57.60
2018-11-01T02:50:37.027Z,57.70
2018-11-01T02:51:10.516Z,57.70
2018-11-01T02:51:43.999Z,57.60
2018-11-01T02:52:17.487Z,57.50
2018-11-01T02:52:50.992Z,57.60
2018-11-01T02:53:24.460Z,57.50
2018-11-01T02:53:58.068Z,57.30
2018-11-01T02:54:31.535Z,57.40
2018-11-01T02:55:05.621Z,57.40
2018-11-01T02:55:39.067Z,57.50
2018-11-01T02:56:12.551Z,56.90
2018-11-01T02:56:46.585Z,56.70
2018-11-01T02:57:20.241Z,57.00
2018-11-01T02:57:53.896Z,57.20
2018-11-01T02:58:27.390Z,57.20
2018-11-01T02:59:00.861Z,57.60
2018-11-01T02:59:34.468Z,57.80
2018-11-01T03:00:13.368Z,57.60
2018-11-01T03:00:46.842Z,57.00
2018-11-01T03:01:20.346Z,56.90
2018-11-01T03:01:53.864Z,56.60
2018-11-01T03:02:27.526Z,56.30
2018-11-01T03:03:01.024Z,56.30
2018-11-01T03:03:34.620Z,56.50
2018-11-01T03:04:08.190Z,56.70
2018-11-01T03:04:41.649Z,56.80
2018-11-01T03:05:15.137Z,57.20
2018-11-01T03:05:48.631Z,57.20
2018-11-01T03:06:22.200Z,56.90
2018-11-01T03:06:55.643Z,57.00
2018-11-01T03:07:29.109Z,56.50
2018-11-01T03:08:02.555Z,56.00
2018-11-01T03:08:36.045Z,55.80
2018-11-01T03:09:09.588Z,56.00
2018-11-01T03:09:43.228Z,56.50
2018-11-01T03:10:16.718Z,56.60
2018-11-01T03:10:50.201Z,56.80
2018-11-01T03:11:23.733Z,56.90
2018-11-01T03:11:57.347Z,57.50
2018-11-01T03:12:30.775Z,56.60
2018-11-01T03:13:04.300Z,56.20
2018-11-01T03:13:37.745Z,55.80
2018-11-01T03:14:11.415Z,55.80
2018-11-01T03:14:44.869Z,55.70
2018-11-01T03:15:18.379Z,55.80
2018-11-01T03:15:51.807Z,56.10
2018-11-01T03:16:25.310Z,56.40
2018-11-01T03:16:58.867Z,56.60
2018-11-01T03:17:32.369Z,57.00
2018-11-01T03:18:06.361Z,57.00
2018-11-01T03:18:39.890Z,56.70
2018-11-01T03:19:13.593Z,56.60
2018-11-01T03:19:47.139Z,56.60
2018-11-01T03:20:20.647Z,56.60
2018-11-01T03:20:54.122Z,56.40
2018-11-01T03:21:27.775Z,56.00
2018-11-01T03:22:01.164Z,55.50
2018-11-01T03:22:34.786Z,56.10
2018-11-01T03:23:08.868Z,55.20
2018-11-01T03:23:42.353Z,55.40
2018-11-01T03:24:15.794Z,55.50
2018-11-01T03:24:49.223Z,55.20
2018-11-01T03:25:22.688Z,55.00
2018-11-01T03:25:56.199Z,54.90
2018-11-01T03:26:29.717Z,54.80
2018-11-01T03:27:03.234Z,55.10
2018-11-01T03:27:37.180Z,55.10
2018-11-01T03:28:17.482Z,54.90
2018-11-01T03:28:50.927Z,54.90
2018-11-01T03:29:24.392Z,55.00
2018-11-01T03:29:57.835Z,54.70
2018-11-01T03:30:31.365Z,54.90
2018-11-01T03:31:05.241Z,54.80
2018-11-01T03:31:38.723Z,54.70
2018-11-01T03:32:12.497Z,54.70
2018-11-01T03:32:46.015Z,54.70
2018-11-01T03:33:19.502Z,54.60
2018-11-01T03:33:53.006Z,54.60
2018-11-01T03:34:26.764Z,54.60
2018-11-01T03:35:00.245Z,54.70
2018-11-01T03:35:33.725Z,54.70
2018-11-01T03:36:07.198Z,54.80
2018-11-01T03:36:40.735Z,54.70
2018-11-01T03:37:14.243Z,54.70
2018-11-01T03:37:47.705Z,54.90
2018-11-01T03:38:21.229Z,54.70
2018-11-01T03:38:54.712Z,54.60
2018-11-01T03:39:28.246Z,54.60
2018-11-01T03:40:01.690Z,54.60
2018-11-01T03:40:35.187Z,54.50
2018-11-01T03:41:08.738Z,54.80
2018-11-01T03:41:42.187Z,54.70
2018-11-01T03:42:15.671Z,54.60
2018-11-01T03:42:49.103Z,54.50
2018-11-01T03:43:22.774Z,54.80
2018-11-01T03:43:56.245Z,54.80
2018-11-01T03:44:29.718Z,54.80
2018-11-01T03:45:03.269Z,54.70
2018-11-01T03:45:36.820Z,54.80
2018-11-01T03:46:10.217Z,55.10
2018-11-01T03:46:43.670Z,55.00
2018-11-01T03:47:17.254Z,54.90
2018-11-01T03:47:50.762Z,54.90
2018-11-01T03:48:25.121Z,54.80
2018-11-01T03:48:58.631Z,54.80
2018-11-01T03:49:32.086Z,54.60
2018-11-01T03:50:05.878Z,54.70
2018-11-01T03:50:39.375Z,54.60
2018-11-01T03:51:12.826Z,54.40
2018-11-01T03:51:46.359Z,54.30
2018-11-01T03:52:19.879Z,54.20
2018-11-01T03:52:53.329Z,54.30
2018-11-01T03:53:26.792Z,54.30
2018-11-01T03:54:00.406Z,54.20
2018-11-01T03:54:33.943Z,54.20
2018-11-01T03:55:08.972Z,53.90
2018-11-01T03:55:42.463Z,53.80
2018-11-01T03:56:15.917Z,54.00
2018-11-01T03:56:49.369Z,53.90
2018-11-01T03:57:22.980Z,53.90
2018-11-01T03:57:56.485Z,53.90
2018-11-01T03:58:29.976Z,54.00
2018-11-01T03:59:03.460Z,53.90
2018-11-01T03:59:36.963Z,53.70
2018-11-01T04:00:13.324Z,53.90
2018-11-01T04:00:46.823Z,54.00
2018-11-01T04:01:20.405Z,54.10
2018-11-01T04:01:53.944Z,54.00
2018-11-01T04:02:27.497Z,54.00
2018-11-01T04:03:00.910Z,53.90
2018-11-01T04:03:34.435Z,54.00
2018-11-01T04:04:08.031Z,54.00
2018-11-01T04:04:41.703Z,54.00
2018-11-01T04:05:15.229Z,53.90
2018-11-01T04:05:48.693Z,53.90
2018-11-01T04:06:22.141Z,54.00
2018-11-01T04:06:55.731Z,54.00
2018-11-01T04:07:29.261Z,53.80
2018-11-01T04:08:02.820Z,54.00
2018-11-01T04:08:36.344Z,54.00
2018-11-01T04:09:12.522Z,54.10
2018-11-01T04:09:45.967Z,54.10
2018-11-01T04:10:19.478Z,54.20
2018-11-01T04:10:53.009Z,54.10
2018-11-01T04:11:26.494Z,54.10
2018-11-01T04:11:59.925Z,54.90
2018-11-01T04:12:33.398Z,54.10
2018-11-01T04:13:06.929Z,54.10
2018-11-01T04:13:40.517Z,53.90
2018-11-01T04:14:13.965Z,54.60
2018-11-01T04:14:47.491Z,54.00
2018-11-01T04:15:21.086Z,54.10
2018-11-01T04:15:54.506Z,54.20
2018-11-01T04:16:27.963Z,54.40
2018-11-01T04:17:01.497Z,54.60
2018-11-01T04:17:34.973Z,54.70
2018-11-01T04:18:08.437Z,54.40
2018-11-01T04:18:42.056Z,54.30
2018-11-01T04:19:16.293Z,54.00
2018-11-01T04:19:49.812Z,54.00
2018-11-01T04:20:23.252Z,54.10
2018-11-01T04:20:56.759Z,54.20
2018-11-01T04:21:30.542Z,54.40
2018-11-01T04:22:05.178Z,54.70
2018-11-01T04:22:39.039Z,55.10
2018-11-01T04:23:12.574Z,55.20
2018-11-01T04:23:45.996Z,55.10
2018-11-01T04:24:19.507Z,55.20
2018-11-01T04:24:52.980Z,55.20
2018-11-01T04:25:26.443Z,55.20
2018-11-01T04:25:59.903Z,55.60
2018-11-01T04:26:33.353Z,55.60
2018-11-01T04:27:07.056Z,55.30
2018-11-01T04:27:40.538Z,55.00
2018-11-01T04:28:14.229Z,54.90
2018-11-01T04:28:47.813Z,54.80
2018-11-01T04:29:21.276Z,54.70
2018-11-01T04:29:54.755Z,55.00
2018-11-01T04:30:28.207Z,55.00
2018-11-01T04:31:01.707Z,54.90
2018-11-01T04:31:35.216Z,55.00
2018-11-01T04:32:08.725Z,55.10
2018-11-01T04:32:42.352Z,54.90
2018-11-01T04:33:15.906Z,54.90
2018-11-01T04:33:49.370Z,55.30
2018-11-01T04:34:22.969Z,55.40
2018-11-01T04:34:56.493Z,55.50
2018-11-01T04:35:29.954Z,55.20
2018-11-01T04:36:03.432Z,54.90
2018-11-01T04:36:36.918Z,55.10
2018-11-01T04:37:10.385Z,55.10
2018-11-01T04:37:43.813Z,55.20
2018-11-01T04:38:17.296Z,55.50
2018-11-01T04:38:50.784Z,55.20
2018-11-01T04:39:24.287Z,55.10
2018-11-01T04:39:57.787Z,54.90
2018-11-01T04:40:31.232Z,54.80
2018-11-01T04:41:04.730Z,54.70
2018-11-01T04:41:38.178Z,54.50
2018-11-01T04:42:11.700Z,54.50
2018-11-01T04:42:45.134Z,54.50
2018-11-01T04:43:18.779Z,54.70
2018-11-01T04:43:52.197Z,54.50
2018-11-01T04:44:25.674Z,54.50
2018-11-01T04:44:59.183Z,54.60
2018-11-01T04:45:32.711Z,54.90
2018-11-01T04:46:06.249Z,55.20
2018-11-01T04:46:40.588Z,55.10
2018-11-01T04:47:14.566Z,56.10
2018-11-01T04:47:48.565Z,55.30
2018-11-01T04:48:21.760Z,55.20
2018-11-01T04:48:55.277Z,55.30
2018-11-01T04:49:28.791Z,55.30
2018-11-01T04:50:02.308Z,55.10
2018-11-01T04:50:35.879Z,54.90
2018-11-01T04:51:09.320Z,55.00
2018-11-01T04:51:42.777Z,54.80
2018-11-01T04:52:16.280Z,54.70
2018-11-01T04:52:49.725Z,55.10
2018-11-01T04:53:23.219Z,55.30
2018-11-01T04:53:56.661Z,55.30
2018-11-01T04:54:30.283Z,55.00
2018-11-01T04:55:03.746Z,54.80
2018-11-01T04:55:37.220Z,54.70
2018-11-01T04:56:10.711Z,54.60
2018-11-01T04:56:44.247Z,54.70
2018-11-01T04:57:17.774Z,54.70
2018-11-01T04:57:51.323Z,54.90
2018-11-01T04:58:24.831Z,54.80
2018-11-01T04:58:58.311Z,54.60
2018-11-01T04:59:31.841Z,54.50
2018-11-01T05:00:07.941Z,54.50
2018-11-01T05:00:41.480Z,54.40
2018-11-01T05:01:17.589Z,54.50
2018-11-01T05:01:51.056Z,54.50
2018-11-01T05:02:24.528Z,54.60
2018-11-01T05:02:57.956Z,54.70
2018-11-01T05:03:31.597Z,54.80
2018-11-01T05:04:05.260Z,54.70
2018-11-01T05:04:38.737Z,54.60
2018-11-01T05:05:12.306Z,54.80
2018-11-01T05:05:45.688Z,54.90
2018-11-01T05:06:19.342Z,54.90
2018-11-01T05:06:52.937Z,54.70
2018-11-01T05:07:26.405Z,54.60
2018-11-01T05:07:59.884Z,54.60
2018-11-01T05:08:33.384Z,54.60
2018-11-01T05:09:07.718Z,54.70
2018-11-01T05:09:41.191Z,54.50
2018-11-01T05:10:14.649Z,54.70
2018-11-01T05:10:48.200Z,54.70
2018-11-01T05:11:22.197Z,54.70
2018-11-01T05:11:55.666Z,54.80
2018-11-01T05:12:29.128Z,54.70
2018-11-01T05:13:02.567Z,54.80
2018-11-01T05:13:36.066Z,54.90
2018-11-01T05:14:10.431Z,54.90
2018-11-01T05:14:43.957Z,54.90
2018-11-01T05:15:17.452Z,54.80
2018-11-01T05:15:50.940Z,54.80
2018-11-01T05:16:24.432Z,54.70
2018-11-01T05:16:57.911Z,54.80
2018-11-01T05:17:31.417Z,54.70
2018-11-01T05:18:05.058Z,54.80
2018-11-01T05:18:38.642Z,54.80
2018-11-01T05:19:12.310Z,54.80
2018-11-01T05:19:45.800Z,54.70
2018-11-01T05:20:19.307Z,54.90
2018-11-01T05:20:52.796Z,54.80
2018-11-01T05:21:26.265Z,54.90
2018-11-01T05:21:59.713Z,54.80
2018-11-01T05:22:33.197Z,54.90
2018-11-01T05:23:07.245Z,54.90
2018-11-01T05:23:41.057Z,54.90
2018-11-01T05:24:14.572Z,55.00
2018-11-01T05:24:48.088Z,55.00
2018-11-01T05:25:21.574Z,55.10
2018-11-01T05:25:55.201Z,55.00
2018-11-01T05:26:29.284Z,54.90
2018-11-01T05:27:02.801Z,54.80
2018-11-01T05:27:36.278Z,54.80
2018-11-01T05:28:09.703Z,54.90
2018-11-01T05:28:43.249Z,54.90
2018-11-01T05:29:16.742Z,54.90
2018-11-01T05:29:50.166Z,54.90
2018-11-01T05:30:23.604Z,54.90
2018-11-01T05:30:57.092Z,55.00
2018-11-01T05:31:30.668Z,55.00
2018-11-01T05:32:04.142Z,54.90
2018-11-01T05:32:37.648Z,54.90
2018-11-01T05:33:11.660Z,54.90
2018-11-01T05:33:45.140Z,55.00
2018-11-01T05:34:18.686Z,55.00
2018-11-01T05:34:52.182Z,55.00
2018-11-01T05:35:25.648Z,55.10
2018-11-01T05:35:59.189Z,55.20
2018-11-01T05:36:32.647Z,55.10
2018-11-01T05:37:06.176Z,55.10
2018-11-01T05:37:39.754Z,55.20
2018-11-01T05:38:13.200Z,55.30
2018-11-01T05:38:46.678Z,55.20
2018-11-01T05:39:20.126Z,55.20
2018-11-01T05:39:53.568Z,56.00
2018-11-01T05:40:27.055Z,55.40
2018-11-01T05:41:00.498Z,55.40
2018-11-01T05:41:34.224Z,55.10
2018-11-01T05:42:07.850Z,55.00
2018-11-01T05:42:42.129Z,54.80
2018-11-01T05:43:20.815Z,54.80
2018-11-01T05:43:54.257Z,54.80
2018-11-01T05:44:27.764Z,54.80
2018-11-01T05:45:01.272Z,54.80
2018-11-01T05:45:34.890Z,54.90
2018-11-01T05:46:08.406Z,55.00
2018-11-01T05:46:41.864Z,54.80
2018-11-01T05:47:15.378Z,54.80
2018-11-01T05:47:48.870Z,54.90
2018-11-01T05:48:22.597Z,55.00
2018-11-01T05:48:56.081Z,54.90
2018-11-01T05:49:30.584Z,55.00
2018-11-01T05:50:04.468Z,55.00
2018-11-01T05:50:38.462Z,55.10
2018-11-01T05:51:12.210Z,55.00
2018-11-01T05:51:45.658Z,55.10
2018-11-01T05:52:19.229Z,55.10
2018-11-01T05:52:52.746Z,55.10
2018-11-01T05:53:26.246Z,55.10
2018-11-01T05:53:59.762Z,55.10
2018-11-01T05:54:33.295Z,55.10
2018-11-01T05:55:07.508Z,55.20
2018-11-01T05:55:40.974Z,55.10
2018-11-01T05:56:14.471Z,55.10
2018-11-01T05:56:47.970Z,55.30
2018-11-01T05:57:21.443Z,55.10
2018-11-01T05:57:54.932Z,55.10
2018-11-01T05:58:28.373Z,55.20
2018-11-01T05:59:01.841Z,55.00
2018-11-01T05:59:35.354Z,55.10
2018-11-01T06:00:12.219Z,55.00
2018-11-01T06:00:45.721Z,55.10
2018-11-01T06:01:24.426Z,55.10
2018-11-01T06:02:00.426Z,55.10
2018-11-01T06:02:36.422Z,55.20
2018-11-01T06:03:09.931Z,55.30
2018-11-01T06:03:43.619Z,55.40
2018-11-01T06:04:17.099Z,55.40
2018-11-01T06:04:50.565Z,55.30
2018-11-01T06:05:24.014Z,55.30
2018-11-01T06:05:57.517Z,55.30
2018-11-01T06:06:30.993Z,55.30
2018-11-01T06:07:04.877Z,55.20
2018-11-01T06:07:46.721Z,55.00
2018-11-01T06:08:25.455Z,55.10
2018-11-01T06:09:00.137Z,55.10
2018-11-01T06:09:33.639Z,55.10
2018-11-01T06:10:07.684Z,55.10
2018-11-01T06:10:41.156Z,54.90
2018-11-01T06:11:14.691Z,55.20
2018-11-01T06:11:48.209Z,55.30
2018-11-01T06:12:21.715Z,55.30
2018-11-01T06:12:55.212Z,55.20
2018-11-01T06:13:28.663Z,55.20
2018-11-01T06:14:02.172Z,55.20
2018-11-01T06:14:36.199Z,55.30
2018-11-01T06:15:09.856Z,55.30
2018-11-01T06:15:43.371Z,55.40
2018-11-01T06:16:16.860Z,55.60
2018-11-01T06:16:50.673Z,55.60
2018-11-01T06:17:24.208Z,55.60
2018-11-01T06:17:57.632Z,55.50
2018-11-01T06:18:31.135Z,55.80
2018-11-01T06:19:04.872Z,55.70
2018-11-01T06:19:38.370Z,55.60
2018-11-01T06:20:12.115Z,55.60
2018-11-01T06:20:45.725Z,55.50
2018-11-01T06:21:19.182Z,55.50
2018-11-01T06:21:52.676Z,55.30
2018-11-01T06:22:26.135Z,56.20
2018-11-01T06:22:59.622Z,55.50
2018-11-01T06:23:33.110Z,55.60
2018-11-01T06:24:06.610Z,55.60
2018-11-01T06:24:40.128Z,55.70
2018-11-01T06:25:13.583Z,55.70
2018-11-01T06:25:47.084Z,55.90
2018-11-01T06:26:20.573Z,56.00
2018-11-01T06:26:54.051Z,56.20
2018-11-01T06:27:27.541Z,56.30
2018-11-01T06:28:01.116Z,56.50
2018-11-01T06:28:34.744Z,56.50
2018-11-01T06:29:08.927Z,56.50
2018-11-01T06:29:42.378Z,56.60
2018-11-01T06:30:16.787Z,56.70
2018-11-01T06:30:50.286Z,56.60
2018-11-01T06:31:23.727Z,56.80
2018-11-01T06:31:57.218Z,56.80
2018-11-01T06:32:30.721Z,56.80
2018-11-01T06:33:04.198Z,56.80
2018-11-01T06:33:37.957Z,56.80
2018-11-01T06:34:15.848Z,56.50
2018-11-01T06:34:52.866Z,56.80
2018-11-01T06:35:30.720Z,56.70
2018-11-01T06:36:07.422Z,56.70
2018-11-01T06:36:41.285Z,56.80
2018-11-01T06:37:15.360Z,56.80
2018-11-01T06:37:48.872Z,56.90
2018-11-01T06:38:22.662Z,57.00
2018-11-01T06:38:56.113Z,56.90
2018-11-01T06:39:29.613Z,56.90
2018-11-01T06:40:03.158Z,56.70
2018-11-01T06:40:36.697Z,56.70
2018-11-01T06:41:10.243Z,56.50
2018-11-01T06:41:43.696Z,56.60
2018-11-01T06:42:17.197Z,56.90
2018-11-01T06:42:50.710Z,57.70
2018-11-01T06:43:24.260Z,56.80
2018-11-01T06:43:57.753Z,56.60
2018-11-01T06:44:31.285Z,56.50
2018-11-01T06:45:05.197Z,56.30
2018-11-01T06:45:38.713Z,56.40
2018-11-01T06:46:12.226Z,56.20
2018-11-01T06:46:45.740Z,56.10
2018-11-01T06:47:19.268Z,56.10
2018-11-01T06:47:52.831Z,56.10
2018-11-01T06:48:26.371Z,56.30
2018-11-01T06:48:59.856Z,56.30
2018-11-01T06:49:33.307Z,56.20
2018-11-01T06:50:07.238Z,56.30
2018-11-01T06:50:40.823Z,56.10
2018-11-01T06:51:14.329Z,56.20
2018-11-01T06:51:47.761Z,56.30
2018-11-01T06:52:21.291Z,56.30
2018-11-01T06:52:54.798Z,56.30
2018-11-01T06:53:28.686Z,56.40
2018-11-01T06:54:02.132Z,56.50
2018-11-01T06:54:35.669Z,56.40
2018-11-01T06:55:10.160Z,56.40
2018-11-01T06:55:43.674Z,56.80
2018-11-01T06:56:17.134Z,56.50
2018-11-01T06:56:50.652Z,56.50
2018-11-01T06:57:24.136Z,56.50
2018-11-01T06:57:57.656Z,56.60
2018-11-01T06:58:31.263Z,56.70
2018-11-01T06:59:05.459Z,56.70
2018-11-01T06:59:39.700Z,56.60
2018-11-01T07:00:14.392Z,56.70
2018-11-01T07:00:47.932Z,56.80
2018-11-01T07:01:22.380Z,56.90
2018-11-01T07:01:55.864Z,56.90
2018-11-01T07:02:29.887Z,56.80
2018-11-01T07:03:03.435Z,56.70
2018-11-01T07:03:36.860Z,56.70
2018-11-01T07:04:10.330Z,56.60
2018-11-01T07:04:43.863Z,56.50
2018-11-01T07:05:17.385Z,56.50
2018-11-01T07:05:50.922Z,56.60
2018-11-01T07:06:24.377Z,56.50
2018-11-01T07:06:57.883Z,56.50
2018-11-01T07:07:31.342Z,56.50
2018-11-01T07:08:05.082Z,56.40
2018-11-01T07:08:38.595Z,56.30
2018-11-01T07:09:13.638Z,56.40
2018-11-01T07:09:47.112Z,56.60
2018-11-01T07:10:20.596Z,56.60
2018-11-01T07:10:54.143Z,56.80
2018-11-01T07:11:28.111Z,56.80
2018-11-01T07:12:01.605Z,56.90
2018-11-01T07:12:35.991Z,56.80
2018-11-01T07:13:10.866Z,56.60
2018-11-01T07:13:44.367Z,56.60
2018-11-01T07:14:17.872Z,56.60